createdAt,value
2023-04-28T00:02:04.742Z,5.70
2023-04-28T00:07:09.216Z,5.30
2023-04-28T00:12:12.338Z,6.10
2023-04-28T00:17:16.042Z,5.53
2023-04-28T00:22:20.630Z,5.25
2023-04-28T00:27:23.749Z,5.43
2023-04-28T00:32:27.012Z,5.75
2023-04-28T00:37:31.592Z,5.65
2023-04-28T00:42:34.743Z,5.28
2023-04-28T00:47:38.349Z,5.50
2023-04-28T00:52:44.050Z,5.32
2023-04-28T00:57:47.598Z,5.65
2023-04-28T01:02:51.587Z,5.30
2023-04-28T01:07:56.541Z,4.75
2023-04-28T01:12:59.938Z,4.40
2023-04-28T01:18:03.210Z,4.90
2023-04-28T01:23:12.510Z,5.28
2023-04-28T01:28:17.642Z,5.72
2023-04-28T01:33:21.321Z,6.28
2023-04-28T01:38:24.506Z,6.32
2023-04-28T01:43:29.047Z,6.50
2023-04-28T01:48:32.335Z,5.55
2023-04-28T01:53:35.466Z,5.30
2023-04-28T01:58:40.082Z,5.63
2023-04-28T02:03:44.485Z,5.93
2023-04-28T02:08:47.836Z,6.03
2023-04-28T02:13:52.361Z,5.90
2023-04-28T02:18:55.620Z,5.85
2023-04-28T02:23:58.886Z,6.78
2023-04-28T02:29:05.322Z,5.68
2023-04-28T02:34:08.972Z,5.32
2023-04-28T02:39:12.212Z,6.15
2023-04-28T02:44:16.890Z,5.13
2023-04-28T02:49:20.162Z,6.68
2023-04-28T02:54:27.729Z,6.18
2023-04-28T02:59:33.770Z,6.60
2023-04-28T03:04:37.058Z,5.63
2023-04-28T03:09:41.834Z,5.38
2023-04-28T03:14:46.975Z,5.43
2023-04-28T03:19:50.268Z,5.70
2023-04-28T03:24:53.715Z,5.90
2023-04-28T03:29:58.295Z,5.38
2023-04-28T03:35:01.414Z,5.90
2023-04-28T03:40:04.816Z,5.60
2023-04-28T03:45:22.461Z,5.82
2023-04-28T03:50:26.771Z,6.05
2023-04-28T03:55:31.413Z,5.45
2023-04-28T04:00:36.081Z,5.88
2023-04-28T04:05:40.866Z,6.10
2023-04-28T04:10:44.183Z,5.68
2023-04-28T04:15:50.092Z,6.22
2023-04-28T04:20:55.927Z,5.80
2023-04-28T04:25:59.162Z,5.70
2023-04-28T04:31:04.093Z,6.40
2023-04-28T04:36:07.812Z,6.18
2023-04-28T04:41:11.058Z,6.63
2023-04-28T04:46:15.839Z,7.13
2023-04-28T04:51:19.406Z,7.05
2023-04-28T04:56:23.596Z,7.28
2023-04-28T05:01:28.403Z,7.63
2023-04-28T05:06:33.712Z,6.80
2023-04-28T05:11:36.827Z,7.53
2023-04-28T05:16:42.652Z,8.70
2023-04-28T05:21:52.598Z,8.23
2023-04-28T05:26:59.343Z,8.73
2023-04-28T05:32:03.930Z,9.30
2023-04-28T05:37:07.922Z,9.32
2023-04-28T05:42:14.255Z,9.60
2023-04-28T05:47:18.865Z,11.10
2023-04-28T05:52:23.212Z,12.30
2023-04-28T05:57:26.649Z,12.93
2023-04-28T06:02:31.911Z,12.65
2023-04-28T06:07:35.570Z,17.95
2023-04-28T06:12:39.518Z,14.18
2023-04-28T06:17:44.135Z,15.23
2023-04-28T06:22:47.343Z,14.70
2023-04-28T06:27:50.517Z,15.77
2023-04-28T06:32:57.742Z,16.20
2023-04-28T06:38:01.776Z,16.02
2023-04-28T06:43:05.802Z,17.42
2023-04-28T06:48:18.430Z,18.55
2023-04-28T06:53:24.212Z,18.80
2023-04-28T06:58:27.548Z,18.25
2023-04-28T07:03:32.146Z,19.92
2023-04-28T07:08:35.502Z,19.38
2023-04-28T07:13:38.664Z,20.25
2023-04-28T07:18:43.215Z,18.10
2023-04-28T07:23:46.432Z,19.35
2023-04-28T07:28:49.582Z,18.60
2023-04-28T07:33:54.155Z,17.98
2023-04-28T07:38:57.476Z,19.48
2023-04-28T07:44:00.614Z,18.05
2023-04-28T07:49:05.495Z,18.05
2023-04-28T07:54:08.996Z,18.15
2023-04-28T07:59:12.070Z,17.83
2023-04-28T08:04:16.826Z,17.77
2023-04-28T08:09:20.575Z,19.40
2023-04-28T08:14:23.855Z,23.27
2023-04-28T08:19:28.623Z,18.75
2023-04-28T08:24:34.257Z,18.52
2023-04-28T08:29:37.517Z,18.42
2023-04-28T08:34:42.109Z,19.30
2023-04-28T08:39:45.324Z,18.10
2023-04-28T08:44:49.225Z,17.70
2023-04-28T08:49:54.603Z,14.88
2023-04-28T08:54:59.590Z,15.95
2023-04-28T09:00:03.494Z,15.43
2023-04-28T09:05:10.008Z,15.38
2023-04-28T09:10:17.488Z,15.23
2023-04-28T09:15:27.738Z,14.35
2023-04-28T09:20:33.104Z,10.53
2023-04-28T09:25:36.204Z,17.35
2023-04-28T09:30:41.016Z,14.95
2023-04-28T09:35:47.625Z,15.82
2023-04-28T09:40:55.151Z,14.70
2023-04-28T09:45:59.877Z,15.48
2023-04-28T09:51:06.098Z,15.07
2023-04-28T09:56:09.792Z,15.48
2023-04-28T10:01:13.478Z,16.85
2023-04-28T10:06:18.506Z,16.13
2023-04-28T10:11:22.817Z,17.73
2023-04-28T10:16:28.158Z,17.25
2023-04-28T10:21:34.288Z,18.48
2023-04-28T10:26:55.912Z,19.73
2023-04-28T10:32:18.428Z,20.95
2023-04-28T10:37:42.915Z,19.80
2023-04-28T10:42:52.778Z,18.92
2023-04-28T10:48:04.282Z,19.70
2023-04-28T10:53:08.971Z,20.48
2023-04-28T10:58:30.751Z,20.52
2023-04-28T11:03:47.863Z,18.77
2023-04-28T11:08:52.775Z,18.52
2023-04-28T11:13:57.050Z,16.33
2023-04-28T11:19:04.641Z,17.05
2023-04-28T11:24:13.344Z,16.33
2023-04-28T11:29:16.483Z,16.17
2023-04-28T11:34:20.345Z,14.48
2023-04-28T11:39:29.749Z,15.07
2023-04-28T11:44:32.950Z,16.35
2023-04-28T11:49:42.864Z,20.33
2023-04-28T11:54:53.826Z,21.40
2023-04-28T12:00:12.157Z,21.10
2023-04-28T12:05:15.830Z,19.60
2023-04-28T12:10:20.583Z,20.83
2023-04-28T12:15:25.455Z,19.13
2023-04-28T12:20:35.932Z,18.08
2023-04-28T12:25:46.314Z,16.23
2023-04-28T12:30:49.546Z,15.77
2023-04-28T12:35:55.087Z,15.48
2023-04-28T12:41:00.488Z,15.55
2023-04-28T12:46:04.394Z,15.68
2023-04-28T12:51:08.938Z,14.82
2023-04-28T12:56:13.463Z,14.60
2023-04-28T13:01:16.587Z,14.55
2023-04-28T13:06:19.875Z,12.35
2023-04-28T13:11:27.183Z,9.68
2023-04-28T13:16:30.608Z,9.70
2023-04-28T13:21:33.748Z,10.85
2023-04-28T13:26:38.754Z,9.70
2023-04-28T13:31:42.402Z,9.13
2023-04-28T13:36:45.609Z,8.43
2023-04-28T13:41:50.161Z,9.55
2023-04-28T13:46:54.380Z,9.80
2023-04-28T13:51:57.536Z,10.10
2023-04-28T13:57:02.991Z,9.50
2023-04-28T14:02:06.368Z,9.68
2023-04-28T14:07:09.931Z,9.73
2023-04-28T14:12:15.420Z,9.32
2023-04-28T14:17:18.680Z,8.88
2023-04-28T14:22:21.768Z,8.10
2023-04-28T14:27:26.327Z,5.72
2023-04-28T14:32:29.526Z,5.22
2023-04-28T14:37:32.742Z,4.70
2023-04-28T14:42:37.763Z,4.13
2023-04-28T14:47:41.397Z,4.07
2023-04-28T14:52:44.578Z,4.07
2023-04-28T14:57:49.409Z,4.63
2023-04-28T15:02:53.206Z,4.95
2023-04-28T15:07:56.427Z,4.85
2023-04-28T15:13:01.150Z,4.43
2023-04-28T15:18:04.319Z,4.43
2023-04-28T15:23:07.542Z,4.68
2023-04-28T15:28:12.126Z,4.60
2023-04-28T15:33:17.577Z,4.93
2023-04-28T15:38:21.004Z,7.03
2023-04-28T15:43:25.602Z,6.53
2023-04-28T15:48:28.884Z,9.48
2023-04-28T15:53:32.072Z,10.73
2023-04-28T15:58:36.524Z,11.18
2023-04-28T16:03:40.224Z,12.88
2023-04-28T16:08:43.570Z,14.80
2023-04-28T16:13:48.107Z,15.43
2023-04-28T16:18:52.573Z,15.02
2023-04-28T16:23:55.747Z,14.25
2023-04-28T16:29:00.337Z,13.25
2023-04-28T16:34:03.805Z,12.85
2023-04-28T16:39:06.990Z,14.15
2023-04-28T16:44:11.765Z,15.20
2023-04-28T16:49:14.947Z,14.63
2023-04-28T16:54:18.149Z,13.80
2023-04-28T16:59:22.960Z,13.48
2023-04-28T17:04:26.309Z,13.45
2023-04-28T17:09:31.180Z,14.00
2023-04-28T17:14:38.550Z,13.10
2023-04-28T17:19:42.232Z,11.88
2023-04-28T17:24:45.960Z,12.30
2023-04-28T17:29:51.737Z,10.93
2023-04-28T17:34:55.364Z,8.98
2023-04-28T17:39:58.983Z,8.23
2023-04-28T17:45:04.573Z,7.93
2023-04-28T17:50:08.214Z,10.05
2023-04-28T17:55:11.334Z,7.53
2023-04-28T18:00:16.303Z,6.35
2023-04-28T18:05:20.510Z,4.40
2023-04-28T18:10:25.772Z,4.85
2023-04-28T18:15:30.543Z,3.95
2023-04-28T18:20:33.620Z,3.60
2023-04-28T18:25:37.200Z,3.47
2023-04-28T18:30:40.638Z,4.00
2023-04-28T18:35:43.714Z,3.60
2023-04-28T18:40:46.821Z,3.50
2023-04-28T18:45:51.331Z,3.35
2023-04-28T18:50:54.583Z,3.92
2023-04-28T18:55:58.304Z,4.70
2023-04-28T19:01:02.806Z,4.97
2023-04-28T19:06:06.079Z,5.65
2023-04-28T19:11:09.594Z,5.90
2023-04-28T19:16:14.242Z,6.32
2023-04-28T19:21:17.406Z,6.30
2023-04-28T19:26:20.553Z,5.10
2023-04-28T19:31:25.158Z,4.53
2023-04-28T19:36:28.412Z,7.43
2023-04-28T19:41:31.565Z,8.82
2023-04-28T19:46:36.095Z,8.55
2023-04-28T19:51:39.589Z,11.07
2023-04-28T19:56:42.776Z,16.17
2023-04-28T20:01:47.262Z,15.20
2023-04-28T20:06:50.409Z,16.63
2023-04-28T20:11:53.634Z,18.13
2023-04-28T20:16:58.285Z,19.67
2023-04-28T20:22:03.704Z,19.02
2023-04-28T20:27:07.523Z,20.30
2023-04-28T20:32:12.076Z,20.10
2023-04-28T20:37:15.328Z,21.92
2023-04-28T20:42:18.604Z,21.75
2023-04-28T20:47:23.101Z,22.52
2023-04-28T20:52:26.222Z,22.83
2023-04-28T20:57:29.327Z,22.00
2023-04-28T21:02:33.957Z,22.38
2023-04-28T21:07:37.158Z,23.23
2023-04-28T21:12:40.837Z,24.98
2023-04-28T21:17:45.322Z,26.75
2023-04-28T21:22:48.539Z,26.08
2023-04-28T21:27:53.007Z,25.95
2023-04-28T21:32:57.537Z,26.35
2023-04-28T21:38:00.664Z,27.60
2023-04-28T21:43:03.914Z,28.45
2023-04-28T21:48:09.445Z,30.42
2023-04-28T21:53:12.727Z,31.85
2023-04-28T21:58:16.556Z,34.72
2023-04-28T22:03:21.231Z,34.30
2023-04-28T22:08:24.425Z,37.60
2023-04-28T22:13:27.629Z,39.80
2023-04-28T22:18:32.207Z,40.58
2023-04-28T22:23:35.352Z,43.38
2023-04-28T22:28:38.459Z,44.92
2023-04-28T22:33:43.504Z,45.85
2023-04-28T22:38:46.638Z,45.47
2023-04-28T22:43:49.796Z,37.17
2023-04-28T22:48:54.214Z,36.33
2023-04-28T22:53:57.341Z,32.08
2023-04-28T22:59:00.460Z,30.60
2023-04-28T23:04:05.115Z,29.33
2023-04-28T23:09:08.381Z,29.08
2023-04-28T23:14:11.438Z,29.70
2023-04-28T23:19:15.970Z,25.60
2023-04-28T23:24:19.242Z,26.63
2023-04-28T23:29:22.340Z,27.38
2023-04-28T23:34:26.816Z,25.50
2023-04-28T23:39:30.661Z,26.10
2023-04-28T23:44:33.766Z,24.33
2023-04-28T23:49:38.569Z,23.85
2023-04-28T23:54:41.910Z,24.60
2023-04-28T23:59:45.131Z,26.65
